sensor_id;sensor_type;location;lat;lon;timestamp;P1;durP1;ratioP1;P2;durP2;ratioP2
20739;SDS011;10530;49.968;19.844;2022-08-21T00:02:44;19.53;;;8.53;;
20739;SDS011;10530;49.968;19.844;2022-08-21T00:07:51;18.88;;;8.57;;
20739;SDS011;10530;49.968;19.844;2022-08-21T00:12:54;18.08;;;8.65;;
20739;SDS011;10530;49.968;19.844;2022-08-21T00:17:58;20.37;;;8.40;;
20739;SDS011;10530;49.968;19.844;2022-08-21T00:23:02;20.92;;;8.95;;
20739;SDS011;10530;49.968;19.844;2022-08-21T00:28:05;16.57;;;7.90;;
20739;SDS011;10530;49.968;19.844;2022-08-21T00:33:08;18.92;;;7.88;;
20739;SDS011;10530;49.968;19.844;2022-08-21T00:38:12;16.38;;;7.30;;
20739;SDS011;10530;49.968;19.844;2022-08-21T00:43:15;18.07;;;7.87;;
20739;SDS011;10530;49.968;19.844;2022-08-21T00:48:21;16.60;;;7.60;;
20739;SDS011;10530;49.968;19.844;2022-08-21T00:53:25;16.53;;;7.20;;
20739;SDS011;10530;49.968;19.844;2022-08-21T00:58:29;16.75;;;7.55;;
20739;SDS011;10530;49.968;19.844;2022-08-21T01:03:34;18.88;;;7.72;;
20739;SDS011;10530;49.968;19.844;2022-08-21T01:08:38;18.30;;;7.23;;
20739;SDS011;10530;49.968;19.844;2022-08-21T01:13:47;16.90;;;7.53;;
20739;SDS011;10530;49.968;19.844;2022-08-21T01:18:51;14.63;;;7.50;;
20739;SDS011;10530;49.968;19.844;2022-08-21T01:23:54;17.27;;;7.63;;
20739;SDS011;10530;49.968;19.844;2022-08-21T01:29:00;17.15;;;7.57;;
20739;SDS011;10530;49.968;19.844;2022-08-21T01:34:14;18.57;;;7.60;;
20739;SDS011;10530;49.968;19.844;2022-08-21T01:39:17;15.40;;;7.28;;
20739;SDS011;10530;49.968;19.844;2022-08-21T01:44:21;16.13;;;7.30;;
20739;SDS011;10530;49.968;19.844;2022-08-21T01:49:24;16.35;;;8.35;;
20739;SDS011;10530;49.968;19.844;2022-08-21T01:54:27;18.90;;;7.70;;
20739;SDS011;10530;49.968;19.844;2022-08-21T01:59:31;15.93;;;7.70;;
20739;SDS011;10530;49.968;19.844;2022-08-21T02:04:34;19.48;;;8.00;;
20739;SDS011;10530;49.968;19.844;2022-08-21T02:09:37;20.40;;;7.97;;
20739;SDS011;10530;49.968;19.844;2022-08-21T02:14:41;24.90;;;9.70;;
20739;SDS011;10530;49.968;19.844;2022-08-21T02:19:43;21.10;;;8.20;;
20739;SDS011;10530;49.968;19.844;2022-08-21T02:24:47;24.37;;;10.00;;
20739;SDS011;10530;49.968;19.844;2022-08-21T02:29:56;22.77;;;10.00;;
20739;SDS011;10530;49.968;19.844;2022-08-21T02:34:59;22.00;;;8.87;;
20739;SDS011;10530;49.968;19.844;2022-08-21T02:40:02;23.08;;;8.82;;
20739;SDS011;10530;49.968;19.844;2022-08-21T02:45:05;22.05;;;9.32;;
20739;SDS011;10530;49.968;19.844;2022-08-21T02:50:09;24.90;;;9.43;;
20739;SDS011;10530;49.968;19.844;2022-08-21T02:55:12;17.20;;;8.13;;
20739;SDS011;10530;49.968;19.844;2022-08-21T03:00:15;21.17;;;8.53;;
20739;SDS011;10530;49.968;19.844;2022-08-21T03:05:18;18.92;;;7.97;;
20739;SDS011;10530;49.968;19.844;2022-08-21T03:10:21;19.30;;;8.45;;
20739;SDS011;10530;49.968;19.844;2022-08-21T03:15:24;16.80;;;8.60;;
20739;SDS011;10530;49.968;19.844;2022-08-21T03:20:29;18.63;;;8.23;;
20739;SDS011;10530;49.968;19.844;2022-08-21T03:25:33;16.67;;;7.90;;
20739;SDS011;10530;49.968;19.844;2022-08-21T03:30:43;16.70;;;7.57;;
20739;SDS011;10530;49.968;19.844;2022-08-21T03:35:50;14.95;;;7.18;;
20739;SDS011;10530;49.968;19.844;2022-08-21T03:41:00;15.83;;;6.73;;
20739;SDS011;10530;49.968;19.844;2022-08-21T03:46:04;15.98;;;7.13;;
20739;SDS011;10530;49.968;19.844;2022-08-21T03:51:08;13.73;;;7.10;;
20739;SDS011;10530;49.968;19.844;2022-08-21T03:56:11;17.40;;;7.00;;
20739;SDS011;10530;49.968;19.844;2022-08-21T04:01:14;17.38;;;7.47;;
20739;SDS011;10530;49.968;19.844;2022-08-21T04:06:17;13.93;;;6.33;;
20739;SDS011;10530;49.968;19.844;2022-08-21T04:11:19;18.23;;;7.85;;
20739;SDS011;10530;49.968;19.844;2022-08-21T04:16:22;16.80;;;7.70;;
20739;SDS011;10530;49.968;19.844;2022-08-21T04:21:25;15.32;;;7.10;;
20739;SDS011;10530;49.968;19.844;2022-08-21T04:26:28;18.63;;;7.47;;
20739;SDS011;10530;49.968;19.844;2022-08-21T04:31:33;17.13;;;7.83;;
20739;SDS011;10530;49.968;19.844;2022-08-21T04:36:38;18.50;;;8.15;;
20739;SDS011;10530;49.968;19.844;2022-08-21T04:41:41;15.73;;;7.50;;
20739;SDS011;10530;49.968;19.844;2022-08-21T04:46:44;18.70;;;8.18;;
20739;SDS011;10530;49.968;19.844;2022-08-21T04:51:47;18.38;;;7.97;;
20739;SDS011;10530;49.968;19.844;2022-08-21T04:56:51;16.13;;;8.30;;
20739;SDS011;10530;49.968;19.844;2022-08-21T05:01:58;21.48;;;8.98;;
20739;SDS011;10530;49.968;19.844;2022-08-21T05:07:03;21.70;;;8.73;;
20739;SDS011;10530;49.968;19.844;2022-08-21T05:12:09;20.15;;;9.68;;
20739;SDS011;10530;49.968;19.844;2022-08-21T05:17:12;19.27;;;9.35;;
20739;SDS011;10530;49.968;19.844;2022-08-21T05:22:18;22.57;;;9.90;;
20739;SDS011;10530;49.968;19.844;2022-08-21T05:27:23;26.17;;;10.25;;
20739;SDS011;10530;49.968;19.844;2022-08-21T05:32:28;23.93;;;9.73;;
20739;SDS011;10530;49.968;19.844;2022-08-21T05:37:31;25.38;;;10.57;;
20739;SDS011;10530;49.968;19.844;2022-08-21T05:42:34;27.13;;;10.45;;
20739;SDS011;10530;49.968;19.844;2022-08-21T05:47:37;32.03;;;12.27;;
20739;SDS011;10530;49.968;19.844;2022-08-21T05:52:40;34.03;;;12.20;;
20739;SDS011;10530;49.968;19.844;2022-08-21T05:57:43;29.03;;;12.43;;
20739;SDS011;10530;49.968;19.844;2022-08-21T06:02:45;32.75;;;13.02;;
20739;SDS011;10530;49.968;19.844;2022-08-21T06:07:48;37.47;;;13.52;;
20739;SDS011;10530;49.968;19.844;2022-08-21T06:12:54;32.33;;;13.07;;
20739;SDS011;10530;49.968;19.844;2022-08-21T06:17:57;34.65;;;14.30;;
20739;SDS011;10530;49.968;19.844;2022-08-21T06:23:00;30.00;;;12.47;;
20739;SDS011;10530;49.968;19.844;2022-08-21T06:28:05;30.13;;;12.40;;
20739;SDS011;10530;49.968;19.844;2022-08-21T06:33:09;29.45;;;12.27;;
20739;SDS011;10530;49.968;19.844;2022-08-21T06:38:11;31.80;;;12.63;;
20739;SDS011;10530;49.968;19.844;2022-08-21T06:43:15;30.70;;;12.90;;
20739;SDS011;10530;49.968;19.844;2022-08-21T06:48:18;31.97;;;12.50;;
20739;SDS011;10530;49.968;19.844;2022-08-21T06:53:22;31.02;;;12.63;;
20739;SDS011;10530;49.968;19.844;2022-08-21T06:58:24;37.25;;;13.00;;
20739;SDS011;10530;49.968;19.844;2022-08-21T07:03:32;37.43;;;13.23;;
20739;SDS011;10530;49.968;19.844;2022-08-21T07:08:39;38.33;;;13.77;;
20739;SDS011;10530;49.968;19.844;2022-08-21T07:13:42;34.07;;;12.43;;
20739;SDS011;10530;49.968;19.844;2022-08-21T07:18:46;36.42;;;13.27;;
20739;SDS011;10530;49.968;19.844;2022-08-21T07:23:50;33.20;;;12.20;;
20739;SDS011;10530;49.968;19.844;2022-08-21T07:28:53;32.10;;;12.80;;
20739;SDS011;10530;49.968;19.844;2022-08-21T07:33:56;35.85;;;13.15;;
20739;SDS011;10530;49.968;19.844;2022-08-21T07:38:59;40.47;;;13.60;;
20739;SDS011;10530;49.968;19.844;2022-08-21T07:44:02;37.15;;;13.07;;
20739;SDS011;10530;49.968;19.844;2022-08-21T07:49:07;32.10;;;11.98;;
20739;SDS011;10530;49.968;19.844;2022-08-21T07:54:10;39.40;;;13.63;;
20739;SDS011;10530;49.968;19.844;2022-08-21T07:59:18;34.05;;;12.60;;
20739;SDS011;10530;49.968;19.844;2022-08-21T08:04:20;36.30;;;12.87;;
20739;SDS011;10530;49.968;19.844;2022-08-21T08:09:27;34.22;;;12.18;;
20739;SDS011;10530;49.968;19.844;2022-08-21T08:14:30;38.58;;;13.00;;
20739;SDS011;10530;49.968;19.844;2022-08-21T08:19:33;32.73;;;12.33;;
20739;SDS011;10530;49.968;19.844;2022-08-21T08:24:37;32.40;;;12.48;;
20739;SDS011;10530;49.968;19.844;2022-08-21T08:29:40;38.13;;;12.63;;
20739;SDS011;10530;49.968;19.844;2022-08-21T08:34:43;36.60;;;12.77;;
20739;SDS011;10530;49.968;19.844;2022-08-21T08:39:48;34.72;;;13.23;;
20739;SDS011;10530;49.968;19.844;2022-08-21T08:44:55;41.10;;;14.40;;
20739;SDS011;10530;49.968;19.844;2022-08-21T08:50:12;34.60;;;14.15;;
20739;SDS011;10530;49.968;19.844;2022-08-21T08:55:23;37.47;;;13.37;;
20739;SDS011;10530;49.968;19.844;2022-08-21T09:00:34;33.65;;;13.35;;
20739;SDS011;10530;49.968;19.844;2022-08-21T09:05:42;36.22;;;13.45;;
20739;SDS011;10530;49.968;19.844;2022-08-21T09:21:49;38.63;;;12.90;;
20739;SDS011;10530;49.968;19.844;2022-08-21T09:27:15;33.10;;;13.52;;
20739;SDS011;10530;49.968;19.844;2022-08-21T09:32:21;31.90;;;13.35;;
20739;SDS011;10530;49.968;19.844;2022-08-21T09:37:49;36.87;;;14.03;;
20739;SDS011;10530;49.968;19.844;2022-08-21T09:42:58;31.15;;;13.48;;
20739;SDS011;10530;49.968;19.844;2022-08-21T09:48:15;31.63;;;12.50;;
20739;SDS011;10530;49.968;19.844;2022-08-21T09:53:27;34.17;;;13.52;;
20739;SDS011;10530;49.968;19.844;2022-08-21T09:58:37;33.85;;;14.30;;
20739;SDS011;10530;49.968;19.844;2022-08-21T10:03:41;31.83;;;13.20;;
20739;SDS011;10530;49.968;19.844;2022-08-21T10:08:44;31.42;;;13.23;;
20739;SDS011;10530;49.968;19.844;2022-08-21T10:13:51;35.87;;;15.37;;
20739;SDS011;10530;49.968;19.844;2022-08-21T10:19:28;33.35;;;14.63;;
20739;SDS011;10530;49.968;19.844;2022-08-21T10:30:18;14.83;;;5.70;;
20739;SDS011;10530;49.968;19.844;2022-08-21T10:35:29;7.32;;;2.75;;
20739;SDS011;10530;49.968;19.844;2022-08-21T10:51:23;5.95;;;2.50;;
20739;SDS011;10530;49.968;19.844;2022-08-21T10:56:49;5.40;;;2.30;;
20739;SDS011;10530;49.968;19.844;2022-08-21T11:12:41;4.82;;;2.17;;
20739;SDS011;10530;49.968;19.844;2022-08-21T11:17:52;4.40;;;2.10;;
20739;SDS011;10530;49.968;19.844;2022-08-21T11:23:14;5.97;;;2.00;;
20739;SDS011;10530;49.968;19.844;2022-08-21T11:29:11;5.68;;;2.15;;
20739;SDS011;10530;49.968;19.844;2022-08-21T11:39:00;5.22;;;1.95;;
20739;SDS011;10530;49.968;19.844;2022-08-21T11:44:22;4.57;;;1.77;;
20739;SDS011;10530;49.968;19.844;2022-08-21T11:55:36;5.63;;;1.90;;
20739;SDS011;10530;49.968;19.844;2022-08-21T12:00:47;5.47;;;2.10;;
20739;SDS011;10530;49.968;19.844;2022-08-21T12:05:55;5.72;;;2.10;;
20739;SDS011;10530;49.968;19.844;2022-08-21T12:11:24;5.78;;;2.50;;
20739;SDS011;10530;49.968;19.844;2022-08-21T12:26:56;4.93;;;2.17;;
20739;SDS011;10530;49.968;19.844;2022-08-21T12:42:38;4.87;;;2.40;;
20739;SDS011;10530;49.968;19.844;2022-08-21T12:48:09;6.15;;;2.70;;
20739;SDS011;10530;49.968;19.844;2022-08-21T12:53:30;5.27;;;2.87;;
20739;SDS011;10530;49.968;19.844;2022-08-21T12:58:44;4.68;;;2.55;;
20739;SDS011;10530;49.968;19.844;2022-08-21T13:03:57;7.03;;;2.88;;
20739;SDS011;10530;49.968;19.844;2022-08-21T13:09:07;6.20;;;2.57;;
20739;SDS011;10530;49.968;19.844;2022-08-21T13:14:14;5.55;;;2.80;;
20739;SDS011;10530;49.968;19.844;2022-08-21T13:19:27;4.97;;;2.43;;
20739;SDS011;10530;49.968;19.844;2022-08-21T13:24:35;6.57;;;2.75;;
20739;SDS011;10530;49.968;19.844;2022-08-21T13:29:43;5.65;;;2.85;;
20739;SDS011;10530;49.968;19.844;2022-08-21T13:34:54;6.90;;;2.80;;
20739;SDS011;10530;49.968;19.844;2022-08-21T13:39:57;5.53;;;2.80;;
20739;SDS011;10530;49.968;19.844;2022-08-21T13:45:00;7.33;;;3.17;;
20739;SDS011;10530;49.968;19.844;2022-08-21T13:50:03;5.60;;;2.85;;
20739;SDS011;10530;49.968;19.844;2022-08-21T13:55:12;5.72;;;2.97;;
20739;SDS011;10530;49.968;19.844;2022-08-21T14:00:20;6.70;;;2.60;;
20739;SDS011;10530;49.968;19.844;2022-08-21T14:05:29;6.78;;;2.97;;
20739;SDS011;10530;49.968;19.844;2022-08-21T14:10:35;6.23;;;3.13;;
20739;SDS011;10530;49.968;19.844;2022-08-21T14:15:44;5.60;;;2.63;;
20739;SDS011;10530;49.968;19.844;2022-08-21T14:21:06;6.00;;;2.33;;
20739;SDS011;10530;49.968;19.844;2022-08-21T14:26:11;6.03;;;2.77;;
20739;SDS011;10530;49.968;19.844;2022-08-21T14:31:16;6.55;;;2.90;;
20739;SDS011;10530;49.968;19.844;2022-08-21T14:36:21;5.27;;;2.53;;
20739;SDS011;10530;49.968;19.844;2022-08-21T14:41:25;4.78;;;2.55;;
20739;SDS011;10530;49.968;19.844;2022-08-21T14:46:31;4.72;;;2.65;;
20739;SDS011;10530;49.968;19.844;2022-08-21T14:51:36;5.90;;;3.33;;
20739;SDS011;10530;49.968;19.844;2022-08-21T14:56:55;6.03;;;3.30;;
20739;SDS011;10530;49.968;19.844;2022-08-21T15:02:00;6.17;;;3.17;;
20739;SDS011;10530;49.968;19.844;2022-08-21T15:07:06;8.70;;;3.20;;
20739;SDS011;10530;49.968;19.844;2022-08-21T15:12:09;5.75;;;3.10;;
20739;SDS011;10530;49.968;19.844;2022-08-21T15:17:13;6.83;;;3.60;;
20739;SDS011;10530;49.968;19.844;2022-08-21T15:22:16;6.43;;;3.60;;
20739;SDS011;10530;49.968;19.844;2022-08-21T15:27:28;6.87;;;3.77;;
20739;SDS011;10530;49.968;19.844;2022-08-21T15:32:31;7.45;;;3.83;;
20739;SDS011;10530;49.968;19.844;2022-08-21T15:37:34;7.43;;;4.10;;
20739;SDS011;10530;49.968;19.844;2022-08-21T15:42:38;7.47;;;3.90;;
20739;SDS011;10530;49.968;19.844;2022-08-21T15:47:43;7.22;;;3.95;;
20739;SDS011;10530;49.968;19.844;2022-08-21T15:52:46;9.33;;;4.20;;
20739;SDS011;10530;49.968;19.844;2022-08-21T15:57:49;7.75;;;3.75;;
20739;SDS011;10530;49.968;19.844;2022-08-21T16:02:59;4.97;;;2.08;;
20739;SDS011;10530;49.968;19.844;2022-08-21T16:08:05;8.93;;;4.03;;
20739;SDS011;10530;49.968;19.844;2022-08-21T16:13:12;9.38;;;3.92;;
20739;SDS011;10530;49.968;19.844;2022-08-21T16:18:26;12.27;;;4.47;;
20739;SDS011;10530;49.968;19.844;2022-08-21T16:23:29;10.73;;;4.35;;
20739;SDS011;10530;49.968;19.844;2022-08-21T16:28:33;10.25;;;4.00;;
20739;SDS011;10530;49.968;19.844;2022-08-21T16:33:39;9.77;;;4.40;;
20739;SDS011;10530;49.968;19.844;2022-08-21T16:38:45;10.48;;;4.68;;
20739;SDS011;10530;49.968;19.844;2022-08-21T16:43:49;9.83;;;4.00;;
20739;SDS011;10530;49.968;19.844;2022-08-21T16:48:52;8.63;;;3.60;;
20739;SDS011;10530;49.968;19.844;2022-08-21T16:53:56;10.30;;;3.78;;
20739;SDS011;10530;49.968;19.844;2022-08-21T16:59:01;8.83;;;2.83;;
20739;SDS011;10530;49.968;19.844;2022-08-21T17:04:05;6.43;;;2.78;;
20739;SDS011;10530;49.968;19.844;2022-08-21T17:09:08;4.77;;;2.20;;
20739;SDS011;10530;49.968;19.844;2022-08-21T17:14:14;5.47;;;2.20;;
20739;SDS011;10530;49.968;19.844;2022-08-21T17:19:22;5.22;;;1.90;;
20739;SDS011;10530;49.968;19.844;2022-08-21T17:24:25;5.93;;;2.40;;
20739;SDS011;10530;49.968;19.844;2022-08-21T17:29:30;5.55;;;2.63;;
20739;SDS011;10530;49.968;19.844;2022-08-21T17:34:39;6.07;;;2.33;;
20739;SDS011;10530;49.968;19.844;2022-08-21T17:39:42;8.00;;;2.75;;
20739;SDS011;10530;49.968;19.844;2022-08-21T17:44:45;6.45;;;2.60;;
20739;SDS011;10530;49.968;19.844;2022-08-21T17:49:48;8.50;;;2.87;;
20739;SDS011;10530;49.968;19.844;2022-08-21T17:54:51;7.78;;;2.70;;
20739;SDS011;10530;49.968;19.844;2022-08-21T17:59:54;6.77;;;2.67;;
20739;SDS011;10530;49.968;19.844;2022-08-21T18:04:59;5.68;;;2.30;;
20739;SDS011;10530;49.968;19.844;2022-08-21T18:10:03;7.25;;;2.58;;
20739;SDS011;10530;49.968;19.844;2022-08-21T18:15:14;6.60;;;2.60;;
20739;SDS011;10530;49.968;19.844;2022-08-21T18:20:19;7.63;;;2.63;;
20739;SDS011;10530;49.968;19.844;2022-08-21T18:25:24;6.57;;;2.40;;
20739;SDS011;10530;49.968;19.844;2022-08-21T18:30:27;6.38;;;2.42;;
20739;SDS011;10530;49.968;19.844;2022-08-21T18:35:29;7.65;;;2.47;;
20739;SDS011;10530;49.968;19.844;2022-08-21T18:40:33;7.60;;;2.70;;
20739;SDS011;10530;49.968;19.844;2022-08-21T18:45:40;9.70;;;2.80;;
20739;SDS011;10530;49.968;19.844;2022-08-21T18:50:43;6.90;;;2.50;;
20739;SDS011;10530;49.968;19.844;2022-08-21T18:55:48;6.22;;;2.33;;
20739;SDS011;10530;49.968;19.844;2022-08-21T19:00:51;8.40;;;2.90;;
20739;SDS011;10530;49.968;19.844;2022-08-21T19:05:56;8.57;;;3.00;;
20739;SDS011;10530;49.968;19.844;2022-08-21T19:10:59;7.20;;;3.00;;
20739;SDS011;10530;49.968;19.844;2022-08-21T19:16:05;8.20;;;3.13;;
20739;SDS011;10530;49.968;19.844;2022-08-21T19:21:10;7.85;;;3.00;;
20739;SDS011;10530;49.968;19.844;2022-08-21T19:26:13;7.35;;;2.65;;
20739;SDS011;10530;49.968;19.844;2022-08-21T19:31:19;6.60;;;2.27;;
20739;SDS011;10530;49.968;19.844;2022-08-21T19:36:24;7.75;;;3.00;;
20739;SDS011;10530;49.968;19.844;2022-08-21T19:41:30;7.57;;;2.80;;
20739;SDS011;10530;49.968;19.844;2022-08-21T19:46:35;7.85;;;2.75;;
20739;SDS011;10530;49.968;19.844;2022-08-21T19:51:41;8.45;;;3.17;;
20739;SDS011;10530;49.968;19.844;2022-08-21T19:56:44;9.13;;;3.40;;
20739;SDS011;10530;49.968;19.844;2022-08-21T20:01:48;9.13;;;2.88;;
20739;SDS011;10530;49.968;19.844;2022-08-21T20:06:51;7.33;;;3.10;;
20739;SDS011;10530;49.968;19.844;2022-08-21T20:11:55;6.68;;;2.83;;
20739;SDS011;10530;49.968;19.844;2022-08-21T20:17:08;6.20;;;2.30;;
20739;SDS011;10530;49.968;19.844;2022-08-21T20:22:14;5.67;;;2.10;;
20739;SDS011;10530;49.968;19.844;2022-08-21T20:27:21;7.43;;;1.92;;
20739;SDS011;10530;49.968;19.844;2022-08-21T20:32:26;5.53;;;1.83;;
20739;SDS011;10530;49.968;19.844;2022-08-21T20:37:29;6.07;;;2.25;;
20739;SDS011;10530;49.968;19.844;2022-08-21T20:42:38;4.13;;;1.77;;
20739;SDS011;10530;49.968;19.844;2022-08-21T20:48:04;5.00;;;1.80;;
20739;SDS011;10530;49.968;19.844;2022-08-21T20:53:13;6.10;;;1.85;;
20739;SDS011;10530;49.968;19.844;2022-08-21T20:58:49;7.50;;;2.03;;
20739;SDS011;10530;49.968;19.844;2022-08-21T21:04:08;6.72;;;2.13;;
20739;SDS011;10530;49.968;19.844;2022-08-21T21:09:37;5.25;;;1.80;;
20739;SDS011;10530;49.968;19.844;2022-08-21T21:14:50;4.40;;;1.60;;
20739;SDS011;10530;49.968;19.844;2022-08-21T21:20:07;4.45;;;1.65;;
20739;SDS011;10530;49.968;19.844;2022-08-21T21:25:21;4.13;;;1.40;;
20739;SDS011;10530;49.968;19.844;2022-08-21T21:30:42;4.93;;;0.95;;
20739;SDS011;10530;49.968;19.844;2022-08-21T21:35:53;4.68;;;1.25;;
20739;SDS011;10530;49.968;19.844;2022-08-21T21:41:22;3.73;;;1.30;;
20739;SDS011;10530;49.968;19.844;2022-08-21T21:57:37;4.15;;;1.30;;
20739;SDS011;10530;49.968;19.844;2022-08-21T22:03:11;3.42;;;1.35;;
20739;SDS011;10530;49.968;19.844;2022-08-21T22:18:57;3.80;;;1.10;;
20739;SDS011;10530;49.968;19.844;2022-08-21T22:24:12;5.60;;;1.50;;
20739;SDS011;10530;49.968;19.844;2022-08-21T22:29:53;4.82;;;1.30;;
20739;SDS011;10530;49.968;19.844;2022-08-21T22:40:21;3.92;;;1.17;;
20739;SDS011;10530;49.968;19.844;2022-08-21T22:45:31;3.10;;;0.90;;
20739;SDS011;10530;49.968;19.844;2022-08-21T22:51:01;3.25;;;1.00;;
20739;SDS011;10530;49.968;19.844;2022-08-21T22:56:07;3.45;;;0.90;;
20739;SDS011;10530;49.968;19.844;2022-08-21T23:01:16;3.33;;;1.00;;
20739;SDS011;10530;49.968;19.844;2022-08-21T23:06:42;3.38;;;1.02;;
20739;SDS011;10530;49.968;19.844;2022-08-21T23:12:58;3.80;;;1.10;;
20739;SDS011;10530;49.968;19.844;2022-08-21T23:23:26;4.50;;;1.00;;
20739;SDS011;10530;49.968;19.844;2022-08-21T23:28:39;2.80;;;0.83;;
20739;SDS011;10530;49.968;19.844;2022-08-21T23:34:05;4.35;;;1.17;;
